createdAt,value
2022-08-01T12:06:30.454Z,1.70
2022-08-01T12:09:17.441Z,1.60
2022-08-01T12:11:45.717Z,1.52
2022-08-01T12:14:20.188Z,1.80
2022-08-01T12:16:55.305Z,2.00
2022-08-01T12:19:25.199Z,1.63
2022-08-01T12:22:14.670Z,1.80
2022-08-01T12:24:44.566Z,1.88
2022-08-01T12:27:13.482Z,1.65
2022-08-01T12:29:44.832Z,2.03
2022-08-01T12:32:27.722Z,1.60
2022-08-01T12:35:05.601Z,1.45
2022-08-01T12:37:38.173Z,1.55
2022-08-01T12:40:12.957Z,1.92
2022-08-01T12:42:42.070Z,1.83
2022-08-01T12:45:11.584Z,2.20
2022-08-01T12:47:40.574Z,1.80
2022-08-01T12:50:10.468Z,2.00
2022-08-01T12:52:40.352Z,1.80
2022-08-01T12:55:15.242Z,1.73
2022-08-01T12:57:45.582Z,1.70
2022-08-01T13:00:17.027Z,2.10
2022-08-01T13:02:46.357Z,2.30
2022-08-01T13:05:15.609Z,2.38
2022-08-01T13:07:50.864Z,2.40
2022-08-01T13:10:28.560Z,2.70
2022-08-01T13:12:58.696Z,3.13
2022-08-01T13:15:32.055Z,2.85
2022-08-01T13:18:02.670Z,2.75
2022-08-01T13:20:33.544Z,2.47
2022-08-01T13:23:21.443Z,2.70
2022-08-01T13:26:06.656Z,2.50
2022-08-01T13:28:37.509Z,2.55
2022-08-01T13:31:07.316Z,2.60
2022-08-01T13:33:45.949Z,2.80
2022-08-01T13:36:28.123Z,2.92
2022-08-01T13:39:15.517Z,3.25
2022-08-01T13:41:43.948Z,2.60
2022-08-01T13:44:15.637Z,2.50
2022-08-01T13:46:47.866Z,2.60
2022-08-01T13:49:19.031Z,2.88
2022-08-01T13:51:47.527Z,1.88
2022-08-01T13:54:16.988Z,2.03
2022-08-01T13:56:45.261Z,2.03
2022-08-01T13:59:13.513Z,2.15
2022-08-01T14:01:41.682Z,2.03
2022-08-01T14:04:09.982Z,2.33
2022-08-01T14:06:38.266Z,2.22
2022-08-01T14:09:17.269Z,2.60
2022-08-01T14:11:48.107Z,3.22
2022-08-01T14:14:16.364Z,3.08
2022-08-01T14:16:45.847Z,2.95
2022-08-01T14:19:14.241Z,3.10
2022-08-01T14:21:42.337Z,3.40
2022-08-01T14:24:10.744Z,3.63
2022-08-01T14:26:38.890Z,3.20
2022-08-01T14:29:08.333Z,3.22
2022-08-01T14:31:36.505Z,3.33
2022-08-01T14:34:04.955Z,3.58
2022-08-01T14:36:38.390Z,3.30
2022-08-01T14:39:07.408Z,3.33
2022-08-01T14:41:43.035Z,3.35
2022-08-01T14:44:14.970Z,2.92
2022-08-01T14:46:57.617Z,2.72
2022-08-01T14:49:26.667Z,2.90
2022-08-01T14:51:54.851Z,3.63
2022-08-01T14:54:26.996Z,3.22
2022-08-01T14:56:57.703Z,3.08
2022-08-01T14:59:27.155Z,2.50
2022-08-01T15:01:55.208Z,2.85
2022-08-01T15:04:23.438Z,2.78
2022-08-01T15:06:51.521Z,2.55
2022-08-01T15:09:19.589Z,2.83
2022-08-01T15:11:48.183Z,2.72
2022-08-01T15:14:33.855Z,2.85
2022-08-01T15:17:03.509Z,2.95
2022-08-01T15:19:31.626Z,2.80
2022-08-01T15:22:01.649Z,2.83
2022-08-01T15:24:29.899Z,2.58
2022-08-01T15:26:57.918Z,2.60
2022-08-01T15:29:26.199Z,3.22
2022-08-01T15:31:54.326Z,2.88
2022-08-01T15:34:23.941Z,2.97
2022-08-01T15:36:51.981Z,2.95
2022-08-01T15:39:20.126Z,2.88
2022-08-01T15:41:48.263Z,3.05
2022-08-01T15:44:19.051Z,3.03
2022-08-01T15:46:47.115Z,3.00
2022-08-01T15:49:15.642Z,3.05
2022-08-01T15:51:45.740Z,3.00
2022-08-01T15:54:14.866Z,2.88
2022-08-01T15:56:43.042Z,2.90
2022-08-01T15:59:11.881Z,3.22
2022-08-01T16:01:40.163Z,2.65
2022-08-01T16:04:08.607Z,2.75
2022-08-01T16:06:37.709Z,2.97
2022-08-01T16:09:07.929Z,3.03
2022-08-01T16:11:50.742Z,3.10
2022-08-01T16:14:21.351Z,2.75
2022-08-01T16:16:49.905Z,3.00
2022-08-01T16:19:19.519Z,2.78
2022-08-01T16:21:48.067Z,2.50
2022-08-01T16:24:17.703Z,2.85
2022-08-01T16:26:45.819Z,2.70
2022-08-01T16:29:13.928Z,3.15
2022-08-01T16:31:59.149Z,2.53
2022-08-01T16:34:30.009Z,2.78
2022-08-01T16:36:58.673Z,2.75
2022-08-01T16:39:30.458Z,2.92
2022-08-01T16:42:02.001Z,2.85
2022-08-01T16:44:33.636Z,3.00
2022-08-01T16:47:02.579Z,2.90
2022-08-01T16:49:32.011Z,2.80
2022-08-01T16:52:00.314Z,3.22
2022-08-01T16:54:29.860Z,3.15
2022-08-01T16:57:08.640Z,2.83
2022-08-01T16:59:41.673Z,3.20
2022-08-01T17:02:11.017Z,3.63
2022-08-01T17:04:39.184Z,3.60
2022-08-01T17:07:07.733Z,3.30
2022-08-01T17:09:41.337Z,3.17
2022-08-01T17:12:14.028Z,3.30
2022-08-01T17:14:50.513Z,3.30
2022-08-01T17:17:18.663Z,3.50
2022-08-01T17:19:49.199Z,3.55
2022-08-01T17:22:17.448Z,3.53
2022-08-01T17:24:46.963Z,3.55
2022-08-01T17:27:15.209Z,4.00
2022-08-01T17:29:44.503Z,4.35
2022-08-01T17:32:13.395Z,5.00
2022-08-01T17:34:41.614Z,5.20
2022-08-01T17:37:10.674Z,4.75
2022-08-01T17:39:40.040Z,4.07
2022-08-01T17:42:10.938Z,4.65
2022-08-01T17:44:39.278Z,4.90
2022-08-01T17:47:10.213Z,4.90
2022-08-01T17:49:54.272Z,5.35
2022-08-01T17:52:23.636Z,5.97
2022-08-01T17:54:57.829Z,5.18
2022-08-01T17:57:27.710Z,5.35
2022-08-01T17:59:56.159Z,6.22
2022-08-01T18:02:24.295Z,6.15
2022-08-01T18:04:53.001Z,6.85
2022-08-01T18:07:22.775Z,6.65
2022-08-01T18:10:11.753Z,6.40
2022-08-01T18:12:41.726Z,7.38
2022-08-01T18:15:10.560Z,7.15
2022-08-01T18:17:43.628Z,6.70
2022-08-01T18:20:12.897Z,7.03
2022-08-01T18:22:41.700Z,6.88
2022-08-01T18:25:10.716Z,7.00
2022-08-01T18:28:30.641Z,6.53
2022-08-01T18:30:28.313Z,7.20
2022-08-01T18:32:57.004Z,6.95
2022-08-01T18:35:51.491Z,7.05
2022-08-01T18:38:14.213Z,6.88
2022-08-01T18:40:42.913Z,7.32
2022-08-01T18:43:11.835Z,6.93
2022-08-01T18:45:43.075Z,6.85
2022-08-01T18:48:11.483Z,6.88
2022-08-01T18:50:40.472Z,6.82
2022-08-01T18:53:08.527Z,6.68
2022-08-01T18:55:36.648Z,6.10
2022-08-01T18:58:04.769Z,6.50
2022-08-01T19:00:33.108Z,6.53
2022-08-01T19:03:03.209Z,6.47
2022-08-01T19:05:34.881Z,6.50
2022-08-01T19:08:06.931Z,6.00
2022-08-01T19:10:36.131Z,5.80
2022-08-01T19:13:04.376Z,7.18
2022-08-01T19:15:32.760Z,6.70
2022-08-01T19:18:03.163Z,7.18
2022-08-01T19:20:31.778Z,7.40
2022-08-01T19:23:19.972Z,8.10
2022-08-01T19:25:55.640Z,7.53
2022-08-01T19:28:26.058Z,8.50
2022-08-01T19:30:55.503Z,8.43
2022-08-01T19:33:25.347Z,7.85
2022-08-01T19:35:54.533Z,6.88
2022-08-01T19:38:22.873Z,7.30
2022-08-01T19:40:51.409Z,7.43
2022-08-01T19:43:22.495Z,7.50
2022-08-01T19:45:51.409Z,7.60
2022-08-01T19:48:20.361Z,6.90
2022-08-01T19:50:50.564Z,6.75
2022-08-01T19:53:20.520Z,6.80
2022-08-01T19:55:49.208Z,7.15
2022-08-01T19:58:28.050Z,7.40
2022-08-01T20:00:56.856Z,7.43
2022-08-01T20:03:28.033Z,6.68
2022-08-01T20:05:57.682Z,6.63
2022-08-01T20:08:27.012Z,6.60
2022-08-01T20:10:56.141Z,6.28
2022-08-01T20:13:24.831Z,6.60
2022-08-01T20:15:54.623Z,7.38
2022-08-01T20:18:23.225Z,9.07
2022-08-01T20:20:52.725Z,7.15
2022-08-01T20:23:27.246Z,7.20
2022-08-01T20:25:59.154Z,6.65
2022-08-01T20:28:29.520Z,8.80
2022-08-01T20:31:05.408Z,7.40
2022-08-01T20:33:35.682Z,7.55
2022-08-01T20:36:12.373Z,7.78
2022-08-01T20:38:56.770Z,9.43
2022-08-01T20:41:25.792Z,8.88
2022-08-01T20:43:55.498Z,9.55
2022-08-01T20:46:26.255Z,9.98
2022-08-01T20:48:55.726Z,10.90
2022-08-01T20:51:25.585Z,10.10
2022-08-01T20:53:56.372Z,9.82
2022-08-01T20:56:30.894Z,11.02
2022-08-01T20:59:07.145Z,11.25
2022-08-01T21:01:40.177Z,9.27
2022-08-01T21:04:24.200Z,9.13
2022-08-01T21:06:56.248Z,12.15
2022-08-01T21:09:26.492Z,8.60
2022-08-01T21:12:07.344Z,8.07
2022-08-01T21:14:53.418Z,8.55
2022-08-01T21:17:34.046Z,9.07
2022-08-01T21:20:08.076Z,9.98
2022-08-01T21:22:42.646Z,9.43
2022-08-01T21:25:18.142Z,8.90
2022-08-01T21:27:47.460Z,9.82
2022-08-01T21:30:16.219Z,10.45
2022-08-01T21:32:44.714Z,9.13
2022-08-01T21:35:15.955Z,9.50
2022-08-01T21:37:51.808Z,10.63
2022-08-01T21:40:23.831Z,11.25
2022-08-01T21:42:53.335Z,10.23
2022-08-01T21:45:23.256Z,10.07
2022-08-01T21:47:52.488Z,9.60
2022-08-01T21:50:21.146Z,10.40
2022-08-01T21:52:50.787Z,9.75
2022-08-01T21:55:35.136Z,10.38
2022-08-01T21:58:19.779Z,9.43
2022-08-01T22:00:57.642Z,9.65
2022-08-01T22:03:30.914Z,8.82
2022-08-01T22:06:01.633Z,9.98
2022-08-01T22:08:34.035Z,10.00
2022-08-01T22:11:06.761Z,10.50
2022-08-01T22:13:35.970Z,9.82
2022-08-01T22:16:05.365Z,10.00
2022-08-01T22:18:35.411Z,9.25
2022-08-01T22:21:05.082Z,9.75
2022-08-01T22:23:36.718Z,9.85
2022-08-01T22:26:08.076Z,9.50
2022-08-01T22:28:36.728Z,9.25
2022-08-01T22:31:06.781Z,9.40
2022-08-01T22:33:36.492Z,9.65
2022-08-01T22:36:06.738Z,9.63
2022-08-01T22:38:35.194Z,10.20
2022-08-01T22:41:07.777Z,9.38
2022-08-01T22:43:40.962Z,9.68
2022-08-01T22:46:18.437Z,10.18
2022-08-01T22:48:51.353Z,10.55
2022-08-01T22:51:55.138Z,10.52
2022-08-01T22:54:36.965Z,10.18
2022-08-01T22:57:14.216Z,10.30
2022-08-01T22:59:49.544Z,10.75
2022-08-01T23:02:19.706Z,10.82
2022-08-01T23:04:49.821Z,10.40
2022-08-01T23:07:21.124Z,10.73
2022-08-01T23:09:54.685Z,10.23
2022-08-01T23:12:26.552Z,10.77
2022-08-01T23:14:56.554Z,10.48
2022-08-01T23:17:28.904Z,10.93
2022-08-01T23:19:59.914Z,10.05
2022-08-01T23:22:32.190Z,10.98
2022-08-01T23:25:04.181Z,9.98
2022-08-01T23:27:57.857Z,10.75
2022-08-01T23:30:26.941Z,10.20
2022-08-01T23:32:55.338Z,10.57
2022-08-01T23:35:24.300Z,10.75
2022-08-01T23:37:52.857Z,9.60
2022-08-01T23:40:24.922Z,9.73
2022-08-01T23:42:55.861Z,10.20
2022-08-01T23:45:24.296Z,10.05
2022-08-01T23:47:52.839Z,9.93
2022-08-01T23:50:22.360Z,9.35
2022-08-01T23:52:51.653Z,9.98
2022-08-01T23:55:20.640Z,9.68
2022-08-01T23:58:02.323Z,9.88
